sensor_id;sensor_type;location;lat;lon;timestamp;P1;durP1;ratioP1;P2;durP2;ratioP2
19965;SDS011;10144;50.874;4.762;2022-08-05T00:02:01;17.88;;;6.55;;
19965;SDS011;10144;50.874;4.762;2022-08-05T00:04:26;12.02;;;6.13;;
19965;SDS011;10144;50.874;4.762;2022-08-05T00:06:52;14.50;;;6.60;;
19965;SDS011;10144;50.874;4.762;2022-08-05T00:09:18;16.50;;;6.60;;
19965;SDS011;10144;50.874;4.762;2022-08-05T00:11:44;17.38;;;6.68;;
19965;SDS011;10144;50.874;4.762;2022-08-05T00:14:11;15.18;;;6.53;;
19965;SDS011;10144;50.874;4.762;2022-08-05T00:16:38;15.82;;;6.80;;
19965;SDS011;10144;50.874;4.762;2022-08-05T00:19:03;12.48;;;6.68;;
19965;SDS011;10144;50.874;4.762;2022-08-05T00:21:29;16.85;;;6.30;;
19965;SDS011;10144;50.874;4.762;2022-08-05T00:23:55;15.98;;;6.50;;
19965;SDS011;10144;50.874;4.762;2022-08-05T00:26:21;13.95;;;6.55;;
19965;SDS011;10144;50.874;4.762;2022-08-05T00:28:48;16.52;;;6.63;;
19965;SDS011;10144;50.874;4.762;2022-08-05T00:31:14;13.50;;;6.00;;
19965;SDS011;10144;50.874;4.762;2022-08-05T00:33:40;18.52;;;7.05;;
19965;SDS011;10144;50.874;4.762;2022-08-05T00:36:06;12.48;;;6.43;;
19965;SDS011;10144;50.874;4.762;2022-08-05T00:38:32;13.90;;;6.40;;
19965;SDS011;10144;50.874;4.762;2022-08-05T00:40:58;13.90;;;6.15;;
19965;SDS011;10144;50.874;4.762;2022-08-05T00:43:24;13.45;;;6.35;;
19965;SDS011;10144;50.874;4.762;2022-08-05T00:45:51;20.70;;;7.22;;
19965;SDS011;10144;50.874;4.762;2022-08-05T00:48:21;18.17;;;6.90;;
19965;SDS011;10144;50.874;4.762;2022-08-05T00:50:48;15.32;;;7.45;;
19965;SDS011;10144;50.874;4.762;2022-08-05T00:53:15;16.00;;;7.63;;
19965;SDS011;10144;50.874;4.762;2022-08-05T00:55:42;16.20;;;7.07;;
19965;SDS011;10144;50.874;4.762;2022-08-05T00:58:10;16.10;;;7.32;;
19965;SDS011;10144;50.874;4.762;2022-08-05T01:00:36;21.17;;;8.15;;
19965;SDS011;10144;50.874;4.762;2022-08-05T01:03:04;19.30;;;8.00;;
19965;SDS011;10144;50.874;4.762;2022-08-05T01:05:30;18.98;;;8.07;;
19965;SDS011;10144;50.874;4.762;2022-08-05T01:07:57;17.90;;;8.52;;
19965;SDS011;10144;50.874;4.762;2022-08-05T01:10:26;19.48;;;8.60;;
19965;SDS011;10144;50.874;4.762;2022-08-05T01:12:57;19.13;;;8.63;;
19965;SDS011;10144;50.874;4.762;2022-08-05T01:15:32;22.15;;;8.88;;
19965;SDS011;10144;50.874;4.762;2022-08-05T01:18:04;27.13;;;9.48;;
19965;SDS011;10144;50.874;4.762;2022-08-05T01:23:43;20.92;;;9.43;;
19965;SDS011;10144;50.874;4.762;2022-08-05T01:28:58;39.28;;;9.73;;
19965;SDS011;10144;50.874;4.762;2022-08-05T01:31:28;19.55;;;9.38;;
19965;SDS011;10144;50.874;4.762;2022-08-05T01:34:04;26.50;;;10.15;;
19965;SDS011;10144;50.874;4.762;2022-08-05T01:36:37;23.27;;;10.32;;
19965;SDS011;10144;50.874;4.762;2022-08-05T01:39:06;23.10;;;10.43;;
19965;SDS011;10144;50.874;4.762;2022-08-05T01:41:34;23.40;;;11.07;;
19965;SDS011;10144;50.874;4.762;2022-08-05T01:44:01;27.88;;;11.25;;
19965;SDS011;10144;50.874;4.762;2022-08-05T01:46:27;24.35;;;11.68;;
19965;SDS011;10144;50.874;4.762;2022-08-05T01:48:55;37.53;;;11.88;;
19965;SDS011;10144;50.874;4.762;2022-08-05T01:51:24;26.30;;;12.65;;
19965;SDS011;10144;50.874;4.762;2022-08-05T01:53:51;26.95;;;11.77;;
19965;SDS011;10144;50.874;4.762;2022-08-05T01:56:20;21.88;;;11.32;;
19965;SDS011;10144;50.874;4.762;2022-08-05T01:58:48;30.33;;;12.02;;
19965;SDS011;10144;50.874;4.762;2022-08-05T02:01:15;24.75;;;11.63;;
19965;SDS011;10144;50.874;4.762;2022-08-05T02:03:45;23.55;;;11.20;;
19965;SDS011;10144;50.874;4.762;2022-08-05T02:06:13;25.70;;;11.48;;
19965;SDS011;10144;50.874;4.762;2022-08-05T02:08:39;29.15;;;11.77;;
19965;SDS011;10144;50.874;4.762;2022-08-05T02:11:07;27.40;;;11.13;;
19965;SDS011;10144;50.874;4.762;2022-08-05T02:16:31;26.80;;;10.90;;
19965;SDS011;10144;50.874;4.762;2022-08-05T02:19:16;32.10;;;12.30;;
19965;SDS011;10144;50.874;4.762;2022-08-05T02:21:48;24.63;;;11.77;;
19965;SDS011;10144;50.874;4.762;2022-08-05T02:24:23;27.65;;;10.95;;
19965;SDS011;10144;50.874;4.762;2022-08-05T02:26:55;30.15;;;11.13;;
19965;SDS011;10144;50.874;4.762;2022-08-05T02:29:25;27.73;;;11.63;;
19965;SDS011;10144;50.874;4.762;2022-08-05T02:31:55;23.65;;;11.68;;
19965;SDS011;10144;50.874;4.762;2022-08-05T02:34:21;29.17;;;12.70;;
19965;SDS011;10144;50.874;4.762;2022-08-05T02:36:53;25.20;;;11.00;;
19965;SDS011;10144;50.874;4.762;2022-08-05T02:39:22;26.00;;;11.38;;
19965;SDS011;10144;50.874;4.762;2022-08-05T02:41:49;29.10;;;11.88;;
19965;SDS011;10144;50.874;4.762;2022-08-05T02:44:16;27.88;;;12.70;;
19965;SDS011;10144;50.874;4.762;2022-08-05T02:46:44;24.88;;;12.52;;
19965;SDS011;10144;50.874;4.762;2022-08-05T02:49:11;24.55;;;12.18;;
19965;SDS011;10144;50.874;4.762;2022-08-05T02:51:40;27.67;;;13.23;;
19965;SDS011;10144;50.874;4.762;2022-08-05T02:54:08;31.15;;;12.13;;
19965;SDS011;10144;50.874;4.762;2022-08-05T02:56:42;26.75;;;12.70;;
19965;SDS011;10144;50.874;4.762;2022-08-05T02:59:13;28.48;;;11.15;;
19965;SDS011;10144;50.874;4.762;2022-08-05T03:01:44;26.90;;;11.60;;
19965;SDS011;10144;50.874;4.762;2022-08-05T03:04:15;25.63;;;12.18;;
19965;SDS011;10144;50.874;4.762;2022-08-05T03:06:43;29.95;;;12.63;;
19965;SDS011;10144;50.874;4.762;2022-08-05T03:09:13;27.20;;;12.00;;
19965;SDS011;10144;50.874;4.762;2022-08-05T03:11:42;26.75;;;11.68;;
19965;SDS011;10144;50.874;4.762;2022-08-05T03:14:09;27.17;;;12.65;;
19965;SDS011;10144;50.874;4.762;2022-08-05T03:16:35;25.55;;;11.82;;
19965;SDS011;10144;50.874;4.762;2022-08-05T03:19:02;23.80;;;11.82;;
19965;SDS011;10144;50.874;4.762;2022-08-05T03:21:29;26.30;;;12.00;;
19965;SDS011;10144;50.874;4.762;2022-08-05T03:23:55;22.40;;;11.75;;
19965;SDS011;10144;50.874;4.762;2022-08-05T03:26:22;29.35;;;11.52;;
19965;SDS011;10144;50.874;4.762;2022-08-05T03:28:48;26.13;;;11.90;;
19965;SDS011;10144;50.874;4.762;2022-08-05T03:31:16;24.90;;;11.63;;
19965;SDS011;10144;50.874;4.762;2022-08-05T03:33:41;22.90;;;11.90;;
19965;SDS011;10144;50.874;4.762;2022-08-05T03:36:07;28.42;;;12.65;;
19965;SDS011;10144;50.874;4.762;2022-08-05T03:38:37;25.65;;;12.20;;
19965;SDS011;10144;50.874;4.762;2022-08-05T03:41:04;31.75;;;12.63;;
19965;SDS011;10144;50.874;4.762;2022-08-05T03:43:30;27.23;;;11.70;;
19965;SDS011;10144;50.874;4.762;2022-08-05T03:45:56;25.50;;;12.07;;
19965;SDS011;10144;50.874;4.762;2022-08-05T03:48:22;24.38;;;11.32;;
19965;SDS011;10144;50.874;4.762;2022-08-05T03:53:42;29.90;;;12.32;;
19965;SDS011;10144;50.874;4.762;2022-08-05T03:56:23;28.38;;;13.45;;
19965;SDS011;10144;50.874;4.762;2022-08-05T03:59:16;29.92;;;13.98;;
19965;SDS011;10144;50.874;4.762;2022-08-05T04:01:43;28.90;;;13.80;;
19965;SDS011;10144;50.874;4.762;2022-08-05T04:04:12;37.55;;;13.98;;
19965;SDS011;10144;50.874;4.762;2022-08-05T04:06:40;30.77;;;14.23;;
19965;SDS011;10144;50.874;4.762;2022-08-05T04:09:06;34.80;;;14.38;;
19965;SDS011;10144;50.874;4.762;2022-08-05T04:11:33;37.95;;;14.73;;
19965;SDS011;10144;50.874;4.762;2022-08-05T04:14:00;32.08;;;14.00;;
19965;SDS011;10144;50.874;4.762;2022-08-05T04:16:28;33.00;;;15.63;;
19965;SDS011;10144;50.874;4.762;2022-08-05T04:18:55;36.47;;;15.20;;
19965;SDS011;10144;50.874;4.762;2022-08-05T04:21:21;35.28;;;15.13;;
19965;SDS011;10144;50.874;4.762;2022-08-05T04:23:48;34.88;;;14.90;;
19965;SDS011;10144;50.874;4.762;2022-08-05T04:26:14;34.10;;;14.68;;
19965;SDS011;10144;50.874;4.762;2022-08-05T04:28:39;35.17;;;15.85;;
19965;SDS011;10144;50.874;4.762;2022-08-05T04:31:05;36.60;;;15.27;;
19965;SDS011;10144;50.874;4.762;2022-08-05T04:33:31;38.30;;;14.93;;
19965;SDS011;10144;50.874;4.762;2022-08-05T04:36:00;37.72;;;15.80;;
19965;SDS011;10144;50.874;4.762;2022-08-05T04:38:25;33.53;;;15.48;;
19965;SDS011;10144;50.874;4.762;2022-08-05T04:40:51;36.60;;;15.57;;
19965;SDS011;10144;50.874;4.762;2022-08-05T04:43:18;41.00;;;16.23;;
19965;SDS011;10144;50.874;4.762;2022-08-05T04:45:43;36.20;;;15.68;;
19965;SDS011;10144;50.874;4.762;2022-08-05T04:48:11;35.80;;;15.30;;
19965;SDS011;10144;50.874;4.762;2022-08-05T04:50:46;41.38;;;16.52;;
19965;SDS011;10144;50.874;4.762;2022-08-05T04:53:14;41.63;;;15.98;;
19965;SDS011;10144;50.874;4.762;2022-08-05T04:55:41;36.97;;;16.00;;
19965;SDS011;10144;50.874;4.762;2022-08-05T04:58:10;32.42;;;16.27;;
19965;SDS011;10144;50.874;4.762;2022-08-05T05:00:37;38.13;;;15.55;;
19965;SDS011;10144;50.874;4.762;2022-08-05T05:03:05;42.60;;;15.77;;
19965;SDS011;10144;50.874;4.762;2022-08-05T05:05:32;40.13;;;15.98;;
19965;SDS011;10144;50.874;4.762;2022-08-05T05:08:02;38.92;;;15.50;;
19965;SDS011;10144;50.874;4.762;2022-08-05T05:10:30;36.40;;;15.68;;
19965;SDS011;10144;50.874;4.762;2022-08-05T05:12:57;36.42;;;15.52;;
19965;SDS011;10144;50.874;4.762;2022-08-05T05:15:23;34.42;;;15.02;;
19965;SDS011;10144;50.874;4.762;2022-08-05T05:17:50;33.45;;;15.55;;
19965;SDS011;10144;50.874;4.762;2022-08-05T05:20:16;31.85;;;15.65;;
19965;SDS011;10144;50.874;4.762;2022-08-05T05:22:42;38.75;;;15.77;;
19965;SDS011;10144;50.874;4.762;2022-08-05T05:25:08;37.25;;;15.57;;
19965;SDS011;10144;50.874;4.762;2022-08-05T05:27:34;39.30;;;15.65;;
19965;SDS011;10144;50.874;4.762;2022-08-05T05:30:00;41.60;;;15.82;;
19965;SDS011;10144;50.874;4.762;2022-08-05T05:32:26;36.50;;;15.98;;
19965;SDS011;10144;50.874;4.762;2022-08-05T05:34:52;30.38;;;15.07;;
19965;SDS011;10144;50.874;4.762;2022-08-05T05:37:19;37.83;;;15.88;;
19965;SDS011;10144;50.874;4.762;2022-08-05T05:39:44;38.58;;;15.40;;
19965;SDS011;10144;50.874;4.762;2022-08-05T05:42:10;31.45;;;14.63;;
19965;SDS011;10144;50.874;4.762;2022-08-05T05:44:38;33.53;;;14.43;;
19965;SDS011;10144;50.874;4.762;2022-08-05T05:47:04;33.30;;;15.18;;
19965;SDS011;10144;50.874;4.762;2022-08-05T05:49:30;32.95;;;14.80;;
19965;SDS011;10144;50.874;4.762;2022-08-05T05:51:56;36.63;;;15.23;;
19965;SDS011;10144;50.874;4.762;2022-08-05T05:54:22;44.45;;;14.57;;
19965;SDS011;10144;50.874;4.762;2022-08-05T05:56:48;37.72;;;14.85;;
19965;SDS011;10144;50.874;4.762;2022-08-05T05:59:14;38.05;;;15.48;;
19965;SDS011;10144;50.874;4.762;2022-08-05T06:01:40;34.92;;;13.80;;
19965;SDS011;10144;50.874;4.762;2022-08-05T06:04:07;33.38;;;14.00;;
19965;SDS011;10144;50.874;4.762;2022-08-05T06:06:37;35.67;;;14.43;;
19965;SDS011;10144;50.874;4.762;2022-08-05T06:09:06;33.95;;;14.50;;
19965;SDS011;10144;50.874;4.762;2022-08-05T06:11:33;32.33;;;13.10;;
19965;SDS011;10144;50.874;4.762;2022-08-05T06:13:59;31.77;;;13.48;;
19965;SDS011;10144;50.874;4.762;2022-08-05T06:16:25;29.80;;;14.05;;
19965;SDS011;10144;50.874;4.762;2022-08-05T06:18:51;28.95;;;13.70;;
19965;SDS011;10144;50.874;4.762;2022-08-05T06:21:17;30.30;;;14.05;;
19965;SDS011;10144;50.874;4.762;2022-08-05T06:23:42;29.65;;;14.25;;
19965;SDS011;10144;50.874;4.762;2022-08-05T06:26:08;32.35;;;14.25;;
19965;SDS011;10144;50.874;4.762;2022-08-05T06:28:34;32.05;;;13.82;;
19965;SDS011;10144;50.874;4.762;2022-08-05T06:31:01;36.17;;;14.23;;
19965;SDS011;10144;50.874;4.762;2022-08-05T06:33:26;28.95;;;14.30;;
19965;SDS011;10144;50.874;4.762;2022-08-05T06:35:53;28.88;;;13.65;;
19965;SDS011;10144;50.874;4.762;2022-08-05T06:38:19;30.75;;;13.50;;
19965;SDS011;10144;50.874;4.762;2022-08-05T06:40:45;32.85;;;13.85;;
19965;SDS011;10144;50.874;4.762;2022-08-05T06:43:12;26.77;;;13.05;;
19965;SDS011;10144;50.874;4.762;2022-08-05T06:45:38;30.92;;;12.80;;
19965;SDS011;10144;50.874;4.762;2022-08-05T06:48:05;30.70;;;13.05;;
19965;SDS011;10144;50.874;4.762;2022-08-05T06:50:30;29.13;;;13.63;;
19965;SDS011;10144;50.874;4.762;2022-08-05T06:53:00;30.60;;;13.65;;
19965;SDS011;10144;50.874;4.762;2022-08-05T06:55:26;25.65;;;12.55;;
19965;SDS011;10144;50.874;4.762;2022-08-05T06:58:01;31.67;;;13.20;;
19965;SDS011;10144;50.874;4.762;2022-08-05T07:09:56;27.80;;;13.20;;
19965;SDS011;10144;50.874;4.762;2022-08-05T07:12:25;48.30;;;13.93;;
19965;SDS011;10144;50.874;4.762;2022-08-05T07:15:19;54.70;;;14.25;;
19965;SDS011;10144;50.874;4.762;2022-08-05T07:21:27;26.90;;;12.60;;
19965;SDS011;10144;50.874;4.762;2022-08-05T07:23:56;26.00;;;13.07;;
19965;SDS011;10144;50.874;4.762;2022-08-05T07:26:21;29.50;;;13.15;;
19965;SDS011;10144;50.874;4.762;2022-08-05T07:28:48;23.70;;;13.43;;
19965;SDS011;10144;50.874;4.762;2022-08-05T07:31:18;29.20;;;13.10;;
19965;SDS011;10144;50.874;4.762;2022-08-05T07:33:47;26.50;;;12.63;;
19965;SDS011;10144;50.874;4.762;2022-08-05T07:36:12;26.38;;;11.88;;
19965;SDS011;10144;50.874;4.762;2022-08-05T07:38:38;25.17;;;12.05;;
19965;SDS011;10144;50.874;4.762;2022-08-05T07:41:05;27.92;;;11.10;;
19965;SDS011;10144;50.874;4.762;2022-08-05T07:43:33;20.20;;;10.82;;
19965;SDS011;10144;50.874;4.762;2022-08-05T07:45:59;23.48;;;10.80;;
19965;SDS011;10144;50.874;4.762;2022-08-05T07:48:27;19.85;;;10.95;;
19965;SDS011;10144;50.874;4.762;2022-08-05T07:50:52;20.33;;;9.63;;
19965;SDS011;10144;50.874;4.762;2022-08-05T07:53:20;16.65;;;8.75;;
19965;SDS011;10144;50.874;4.762;2022-08-05T07:55:46;18.95;;;9.23;;
19965;SDS011;10144;50.874;4.762;2022-08-05T07:58:11;18.35;;;8.85;;
19965;SDS011;10144;50.874;4.762;2022-08-05T08:00:39;25.40;;;9.35;;
19965;SDS011;10144;50.874;4.762;2022-08-05T08:03:11;14.77;;;8.50;;
19965;SDS011;10144;50.874;4.762;2022-08-05T08:05:37;22.23;;;9.25;;
19965;SDS011;10144;50.874;4.762;2022-08-05T08:08:07;19.23;;;9.43;;
19965;SDS011;10144;50.874;4.762;2022-08-05T08:10:38;19.85;;;9.85;;
19965;SDS011;10144;50.874;4.762;2022-08-05T08:13:04;21.50;;;9.82;;
19965;SDS011;10144;50.874;4.762;2022-08-05T08:15:32;19.58;;;9.27;;
19965;SDS011;10144;50.874;4.762;2022-08-05T08:18:00;20.10;;;10.02;;
19965;SDS011;10144;50.874;4.762;2022-08-05T08:20:29;22.70;;;11.77;;
19965;SDS011;10144;50.874;4.762;2022-08-05T08:22:56;19.98;;;9.85;;
19965;SDS011;10144;50.874;4.762;2022-08-05T08:25:23;19.92;;;8.90;;
19965;SDS011;10144;50.874;4.762;2022-08-05T08:27:50;20.05;;;9.20;;
19965;SDS011;10144;50.874;4.762;2022-08-05T08:30:17;18.60;;;8.13;;
19965;SDS011;10144;50.874;4.762;2022-08-05T08:32:43;16.30;;;8.70;;
19965;SDS011;10144;50.874;4.762;2022-08-05T08:35:13;17.60;;;8.75;;
19965;SDS011;10144;50.874;4.762;2022-08-05T08:40:08;17.00;;;8.95;;
19965;SDS011;10144;50.874;4.762;2022-08-05T08:42:36;18.35;;;8.73;;
19965;SDS011;10144;50.874;4.762;2022-08-05T08:45:03;27.63;;;9.57;;
19965;SDS011;10144;50.874;4.762;2022-08-05T08:47:32;18.92;;;8.68;;
19965;SDS011;10144;50.874;4.762;2022-08-05T08:49:59;12.65;;;8.15;;
19965;SDS011;10144;50.874;4.762;2022-08-05T08:52:28;13.55;;;7.40;;
19965;SDS011;10144;50.874;4.762;2022-08-05T08:54:57;13.93;;;7.43;;
19965;SDS011;10144;50.874;4.762;2022-08-05T08:57:23;13.43;;;7.38;;
19965;SDS011;10144;50.874;4.762;2022-08-05T08:59:50;13.27;;;6.70;;
19965;SDS011;10144;50.874;4.762;2022-08-05T09:02:18;12.38;;;6.43;;
19965;SDS011;10144;50.874;4.762;2022-08-05T09:04:46;11.85;;;5.90;;
19965;SDS011;10144;50.874;4.762;2022-08-05T09:07:12;11.88;;;5.00;;
19965;SDS011;10144;50.874;4.762;2022-08-05T09:09:39;11.10;;;5.03;;
19965;SDS011;10144;50.874;4.762;2022-08-05T09:12:07;12.13;;;5.63;;
19965;SDS011;10144;50.874;4.762;2022-08-05T09:14:34;13.98;;;5.30;;
19965;SDS011;10144;50.874;4.762;2022-08-05T09:17:01;16.58;;;6.07;;
19965;SDS011;10144;50.874;4.762;2022-08-05T09:19:32;11.18;;;5.32;;
19965;SDS011;10144;50.874;4.762;2022-08-05T09:21:59;13.05;;;5.13;;
19965;SDS011;10144;50.874;4.762;2022-08-05T09:24:25;11.30;;;4.43;;
19965;SDS011;10144;50.874;4.762;2022-08-05T09:26:51;25.77;;;6.00;;
19965;SDS011;10144;50.874;4.762;2022-08-05T09:29:20;16.60;;;4.63;;
19965;SDS011;10144;50.874;4.762;2022-08-05T09:32:04;14.02;;;4.60;;
19965;SDS011;10144;50.874;4.762;2022-08-05T09:37:19;12.43;;;4.30;;
19965;SDS011;10144;50.874;4.762;2022-08-05T09:39:49;8.60;;;3.72;;
19965;SDS011;10144;50.874;4.762;2022-08-05T09:42:16;9.20;;;3.45;;
19965;SDS011;10144;50.874;4.762;2022-08-05T09:44:45;9.77;;;3.92;;
19965;SDS011;10144;50.874;4.762;2022-08-05T09:47:14;7.97;;;3.70;;
19965;SDS011;10144;50.874;4.762;2022-08-05T09:49:46;6.82;;;2.40;;
19965;SDS011;10144;50.874;4.762;2022-08-05T09:52:25;7.82;;;2.83;;
19965;SDS011;10144;50.874;4.762;2022-08-05T09:57:35;6.53;;;2.78;;
19965;SDS011;10144;50.874;4.762;2022-08-05T10:02:44;6.22;;;2.85;;
19965;SDS011;10144;50.874;4.762;2022-08-05T10:05:17;7.88;;;2.80;;
19965;SDS011;10144;50.874;4.762;2022-08-05T10:07:45;7.00;;;2.80;;
19965;SDS011;10144;50.874;4.762;2022-08-05T10:10:20;7.47;;;2.85;;
19965;SDS011;10144;50.874;4.762;2022-08-05T10:13:09;7.45;;;3.00;;
19965;SDS011;10144;50.874;4.762;2022-08-05T10:15:42;5.53;;;2.75;;
19965;SDS011;10144;50.874;4.762;2022-08-05T10:20:41;9.02;;;2.75;;
19965;SDS011;10144;50.874;4.762;2022-08-05T10:23:23;6.82;;;2.53;;
19965;SDS011;10144;50.874;4.762;2022-08-05T10:25:50;5.72;;;2.70;;
19965;SDS011;10144;50.874;4.762;2022-08-05T10:28:28;9.00;;;3.92;;
19965;SDS011;10144;50.874;4.762;2022-08-05T10:30:58;9.45;;;6.22;;
19965;SDS011;10144;50.874;4.762;2022-08-05T10:33:28;7.53;;;3.22;;
19965;SDS011;10144;50.874;4.762;2022-08-05T10:44:22;5.25;;;2.20;;
19965;SDS011;10144;50.874;4.762;2022-08-05T10:46:55;9.75;;;3.35;;
19965;SDS011;10144;50.874;4.762;2022-08-05T10:49:22;6.32;;;2.10;;
19965;SDS011;10144;50.874;4.762;2022-08-05T10:51:58;3.80;;;1.83;;
19965;SDS011;10144;50.874;4.762;2022-08-05T10:57:28;2.45;;;1.70;;
19965;SDS011;10144;50.874;4.762;2022-08-05T11:00:11;6.90;;;1.85;;
19965;SDS011;10144;50.874;4.762;2022-08-05T11:02:37;6.93;;;1.77;;
19965;SDS011;10144;50.874;4.762;2022-08-05T11:05:22;4.45;;;1.60;;
19965;SDS011;10144;50.874;4.762;2022-08-05T11:08:00;3.08;;;1.45;;
19965;SDS011;10144;50.874;4.762;2022-08-05T11:19:50;3.08;;;1.75;;
19965;SDS011;10144;50.874;4.762;2022-08-05T11:28:40;4.70;;;2.22;;
19965;SDS011;10144;50.874;4.762;2022-08-05T11:34:40;3.33;;;2.00;;
19965;SDS011;10144;50.874;4.762;2022-08-05T11:55:52;7.65;;;2.72;;
19965;SDS011;10144;50.874;4.762;2022-08-05T11:58:38;5.43;;;2.40;;
19965;SDS011;10144;50.874;4.762;2022-08-05T12:04:35;31.73;;;14.80;;
19965;SDS011;10144;50.874;4.762;2022-08-05T12:09:53;4.20;;;1.70;;
19965;SDS011;10144;50.874;4.762;2022-08-05T12:17:52;37.05;;;4.82;;
19965;SDS011;10144;50.874;4.762;2022-08-05T12:20:18;4.88;;;2.20;;
19965;SDS011;10144;50.874;4.762;2022-08-05T12:23:07;7.25;;;2.20;;
19965;SDS011;10144;50.874;4.762;2022-08-05T12:25:51;3.05;;;1.52;;
19965;SDS011;10144;50.874;4.762;2022-08-05T12:28:35;7.40;;;2.30;;
19965;SDS011;10144;50.874;4.762;2022-08-05T12:31:03;8.00;;;2.10;;
19965;SDS011;10144;50.874;4.762;2022-08-05T12:33:30;8.50;;;1.77;;
19965;SDS011;10144;50.874;4.762;2022-08-05T12:41:38;5.63;;;2.33;;
19965;SDS011;10144;50.874;4.762;2022-08-05T12:44:09;6.05;;;1.60;;
19965;SDS011;10144;50.874;4.762;2022-08-05T12:46:38;4.32;;;1.80;;
19965;SDS011;10144;50.874;4.762;2022-08-05T12:49:09;5.80;;;2.00;;
19965;SDS011;10144;50.874;4.762;2022-08-05T12:54:49;3.65;;;1.40;;
19965;SDS011;10144;50.874;4.762;2022-08-05T12:57:15;7.10;;;1.50;;
19965;SDS011;10144;50.874;4.762;2022-08-05T13:00:00;5.45;;;2.10;;
19965;SDS011;10144;50.874;4.762;2022-08-05T13:11:15;8.38;;;1.90;;
19965;SDS011;10144;50.874;4.762;2022-08-05T13:13:57;4.35;;;1.40;;
19965;SDS011;10144;50.874;4.762;2022-08-05T13:16:22;4.50;;;1.45;;
19965;SDS011;10144;50.874;4.762;2022-08-05T13:24:44;2.33;;;1.30;;
19965;SDS011;10144;50.874;4.762;2022-08-05T13:27:23;5.38;;;1.30;;
19965;SDS011;10144;50.874;4.762;2022-08-05T13:29:56;4.53;;;1.52;;
19965;SDS011;10144;50.874;4.762;2022-08-05T13:32:22;2.47;;;1.13;;
19965;SDS011;10144;50.874;4.762;2022-08-05T13:35:06;6.63;;;1.25;;
19965;SDS011;10144;50.874;4.762;2022-08-05T13:37:34;2.15;;;1.13;;
19965;SDS011;10144;50.874;4.762;2022-08-05T13:40:06;2.75;;;1.20;;
19965;SDS011;10144;50.874;4.762;2022-08-05T13:42:34;4.20;;;1.23;;
19965;SDS011;10144;50.874;4.762;2022-08-05T13:47:31;2.85;;;1.10;;
19965;SDS011;10144;50.874;4.762;2022-08-05T13:53:20;3.35;;;1.10;;
19965;SDS011;10144;50.874;4.762;2022-08-05T13:59:09;1.63;;;1.00;;
19965;SDS011;10144;50.874;4.762;2022-08-05T15:01:47;0.90;;;0.80;;
19965;SDS011;10144;50.874;4.762;2022-08-05T15:04:20;1.77;;;0.90;;
19965;SDS011;10144;50.874;4.762;2022-08-05T15:09:25;5.38;;;1.20;;
19965;SDS011;10144;50.874;4.762;2022-08-05T15:11:52;4.15;;;1.20;;
19965;SDS011;10144;50.874;4.762;2022-08-05T15:14:24;3.67;;;0.80;;
19965;SDS011;10144;50.874;4.762;2022-08-05T15:17:05;4.25;;;0.88;;
19965;SDS011;10144;50.874;4.762;2022-08-05T15:19:35;2.92;;;1.00;;
19965;SDS011;10144;50.874;4.762;2022-08-05T15:28:19;2.97;;;0.90;;
19965;SDS011;10144;50.874;4.762;2022-08-05T15:30:48;1.27;;;0.88;;
19965;SDS011;10144;50.874;4.762;2022-08-05T15:36:24;3.13;;;1.00;;
19965;SDS011;10144;50.874;4.762;2022-08-05T15:44:47;5.80;;;1.00;;
19965;SDS011;10144;50.874;4.762;2022-08-05T15:47:25;2.10;;;1.00;;
19965;SDS011;10144;50.874;4.762;2022-08-05T15:59:00;1.95;;;1.08;;
19965;SDS011;10144;50.874;4.762;2022-08-05T16:01:25;3.42;;;0.98;;
19965;SDS011;10144;50.874;4.762;2022-08-05T16:04:00;3.63;;;1.10;;
19965;SDS011;10144;50.874;4.762;2022-08-05T16:09:53;2.47;;;1.00;;
19965;SDS011;10144;50.874;4.762;2022-08-05T16:15:47;3.80;;;1.00;;
19965;SDS011;10144;50.874;4.762;2022-08-05T16:21:35;1.95;;;0.90;;
19965;SDS011;10144;50.874;4.762;2022-08-05T16:27:22;2.78;;;0.90;;
19965;SDS011;10144;50.874;4.762;2022-08-05T16:33:10;4.53;;;1.00;;
19965;SDS011;10144;50.874;4.762;2022-08-05T16:38:58;4.57;;;1.00;;
19965;SDS011;10144;50.874;4.762;2022-08-05T16:44:47;3.67;;;0.98;;
19965;SDS011;10144;50.874;4.762;2022-08-05T21:40:13;2.28;;;1.02;;
19965;SDS011;10144;50.874;4.762;2022-08-05T21:46:06;5.95;;;1.08;;
19965;SDS011;10144;50.874;4.762;2022-08-05T21:51:59;7.60;;;1.30;;
19965;SDS011;10144;50.874;4.762;2022-08-05T21:58:02;2.55;;;0.95;;
19965;SDS011;10144;50.874;4.762;2022-08-05T22:03:51;10.02;;;1.00;;
19965;SDS011;10144;50.874;4.762;2022-08-05T22:09:52;4.85;;;1.10;;
19965;SDS011;10144;50.874;4.762;2022-08-05T22:23:32;11.65;;;1.70;;
19965;SDS011;10144;50.874;4.762;2022-08-05T22:29:41;7.22;;;1.05;;
19965;SDS011;10144;50.874;4.762;2022-08-05T22:42:29;5.80;;;1.20;;
19965;SDS011;10144;50.874;4.762;2022-08-05T23:11:44;7.63;;;1.38;;
19965;SDS011;10144;50.874;4.762;2022-08-05T23:17:35;5.43;;;1.10;;
19965;SDS011;10144;50.874;4.762;2022-08-05T23:23:36;4.72;;;1.30;;
19965;SDS011;10144;50.874;4.762;2022-08-05T23:28:38;4.63;;;1.08;;
19965;SDS011;10144;50.874;4.762;2022-08-05T23:34:27;5.22;;;1.30;;
19965;SDS011;10144;50.874;4.762;2022-08-05T23:40:18;9.73;;;1.30;;
19965;SDS011;10144;50.874;4.762;2022-08-05T23:46:09;5.88;;;1.30;;
19965;SDS011;10144;50.874;4.762;2022-08-05T23:51:58;9.38;;;1.60;;
